createdAt,value
2018-07-05T00:00:33.717Z,956.95
2018-07-05T00:01:33.696Z,956.91
2018-07-05T00:02:33.701Z,956.95
2018-07-05T00:03:33.673Z,956.94
2018-07-05T00:04:33.658Z,956.97
2018-07-05T00:05:33.653Z,956.92
2018-07-05T00:06:33.671Z,957.00
2018-07-05T00:07:33.638Z,957.00
2018-07-05T00:08:33.615Z,957.04
2018-07-05T00:09:33.621Z,957.02
2018-07-05T00:10:33.598Z,957.03
2018-07-05T00:11:33.600Z,957.01
2018-07-05T00:12:33.592Z,957.02
2018-07-05T00:13:33.585Z,957.03
2018-07-05T00:14:33.550Z,957.03
2018-07-05T00:15:33.541Z,956.98
2018-07-05T00:16:33.533Z,956.96
2018-07-05T00:17:33.546Z,956.99
2018-07-05T00:18:33.507Z,956.94
2018-07-05T00:19:33.541Z,956.99
2018-07-05T00:20:33.491Z,956.97
2018-07-05T00:21:33.480Z,957.02
2018-07-05T00:22:33.466Z,957.04
2018-07-05T00:23:33.467Z,957.05
2018-07-05T00:24:33.446Z,957.06
2018-07-05T00:25:33.434Z,957.00
2018-07-05T00:26:33.424Z,957.01
2018-07-05T00:27:33.449Z,957.00
2018-07-05T00:28:33.414Z,956.98
2018-07-05T00:29:33.391Z,956.97
2018-07-05T00:30:33.379Z,956.94
2018-07-05T00:31:33.371Z,956.99
2018-07-05T00:32:33.371Z,956.93
2018-07-05T00:33:33.370Z,956.95
2018-07-05T00:34:33.360Z,956.95
2018-07-05T00:35:33.326Z,956.98
2018-07-05T00:36:33.317Z,956.95
2018-07-05T00:37:33.305Z,956.95
2018-07-05T00:38:33.306Z,956.99
2018-07-05T00:39:33.286Z,957.02
2018-07-05T00:40:33.295Z,957.00
2018-07-05T00:41:33.279Z,956.98
2018-07-05T00:42:33.310Z,957.01
2018-07-05T00:43:33.254Z,957.00
2018-07-05T00:44:33.241Z,956.98
2018-07-05T00:45:33.229Z,957.02
2018-07-05T00:46:33.214Z,957.05
2018-07-05T00:47:33.200Z,957.09
2018-07-05T00:48:33.199Z,957.09
2018-07-05T00:49:33.187Z,957.14
2018-07-05T00:50:33.170Z,957.10
2018-07-05T00:51:33.156Z,957.05
2018-07-05T00:52:33.148Z,957.00
2018-07-05T00:53:33.196Z,956.96
2018-07-05T00:54:33.147Z,956.90
2018-07-05T00:55:33.125Z,956.90
2018-07-05T00:56:33.108Z,956.91
2018-07-05T00:57:33.093Z,956.87
2018-07-05T00:58:33.101Z,956.90
2018-07-05T00:59:33.074Z,956.90
2018-07-05T01:00:33.084Z,956.88
2018-07-05T01:01:33.066Z,956.87
2018-07-05T01:02:33.080Z,956.90
2018-07-05T01:03:33.045Z,956.87
2018-07-05T01:04:33.018Z,956.87
2018-07-05T01:05:33.008Z,956.91
2018-07-05T01:06:32.997Z,956.90
2018-07-05T01:07:32.993Z,956.88
2018-07-05T01:08:33.025Z,956.87
2018-07-05T01:09:32.971Z,956.90
2018-07-05T01:10:32.954Z,956.86
2018-07-05T01:11:32.946Z,956.86
2018-07-05T01:12:33.030Z,956.78
2018-07-05T01:13:32.944Z,956.81
2018-07-05T01:14:32.921Z,956.85
2018-07-05T01:15:32.906Z,956.88
2018-07-05T01:16:32.893Z,956.86
2018-07-05T01:17:32.883Z,956.88
2018-07-05T01:18:32.918Z,956.85
2018-07-05T01:19:32.863Z,956.86
2018-07-05T01:20:32.849Z,956.85
2018-07-05T01:21:32.837Z,956.88
2018-07-05T01:22:32.848Z,956.87
2018-07-05T01:23:32.823Z,956.83
2018-07-05T01:24:32.825Z,956.79
2018-07-05T01:25:32.796Z,956.79
2018-07-05T01:26:32.787Z,956.81
2018-07-05T01:27:32.808Z,956.79
2018-07-05T01:28:32.763Z,956.79
2018-07-05T01:29:32.763Z,956.75
2018-07-05T01:30:32.745Z,956.77
2018-07-05T01:31:32.732Z,956.83
2018-07-05T01:32:32.742Z,956.83
2018-07-05T01:33:32.745Z,956.90
2018-07-05T01:34:32.717Z,956.86
2018-07-05T01:35:32.692Z,956.87
2018-07-05T01:36:32.681Z,956.84
2018-07-05T01:37:32.673Z,956.81
2018-07-05T01:38:32.667Z,956.79
2018-07-05T01:39:32.709Z,956.75
2018-07-05T01:40:32.640Z,956.71
2018-07-05T01:41:32.629Z,956.80
2018-07-05T01:42:32.627Z,956.78
2018-07-05T01:43:32.634Z,956.83
2018-07-05T01:44:32.624Z,956.83
2018-07-05T01:45:32.580Z,956.81
2018-07-05T01:46:32.572Z,956.82
2018-07-05T01:47:32.589Z,956.82
2018-07-05T01:48:32.559Z,956.79
2018-07-05T01:49:32.564Z,956.84
2018-07-05T01:50:32.566Z,956.79
2018-07-05T01:51:32.519Z,956.82
2018-07-05T01:52:32.586Z,956.81
2018-07-05T01:53:32.524Z,956.88
2018-07-05T01:54:32.533Z,956.92
2018-07-05T01:55:32.516Z,956.88
2018-07-05T01:56:32.491Z,956.88
2018-07-05T01:57:32.457Z,956.90
2018-07-05T01:58:32.452Z,956.88
2018-07-05T01:59:32.432Z,956.91
2018-07-05T02:00:32.426Z,956.84
2018-07-05T02:01:32.485Z,956.90
2018-07-05T02:02:32.400Z,956.88
2018-07-05T02:03:32.420Z,956.93
2018-07-05T02:04:32.378Z,956.89
2018-07-05T02:05:32.370Z,956.92
2018-07-05T02:06:32.620Z,956.86
2018-07-05T02:07:32.360Z,956.91
2018-07-05T02:08:32.339Z,956.87
2018-07-05T02:09:32.325Z,956.87
2018-07-05T02:10:32.316Z,956.85
2018-07-05T02:11:32.308Z,956.82
2018-07-05T02:12:32.320Z,956.81
2018-07-05T02:13:32.308Z,956.77
2018-07-05T02:14:32.375Z,956.79
2018-07-05T02:15:32.276Z,956.80
2018-07-05T02:16:32.252Z,956.76
2018-07-05T02:17:32.265Z,956.80
2018-07-05T02:18:32.234Z,956.77
2018-07-05T02:19:32.220Z,956.79
2018-07-05T02:20:32.209Z,956.79
2018-07-05T02:21:32.200Z,956.79
2018-07-05T02:22:32.213Z,956.84
2018-07-05T02:23:32.186Z,956.90
2018-07-05T02:24:32.168Z,956.88
2018-07-05T02:25:32.155Z,956.88
2018-07-05T02:26:32.144Z,956.90
2018-07-05T02:27:32.148Z,956.87
2018-07-05T02:28:32.128Z,956.86
2018-07-05T02:29:32.143Z,956.86
2018-07-05T02:30:32.107Z,956.86
2018-07-05T02:31:32.093Z,956.83
2018-07-05T02:32:32.094Z,956.78
2018-07-05T02:33:32.070Z,956.81
2018-07-05T02:34:32.075Z,956.80
2018-07-05T02:35:32.055Z,956.79
2018-07-05T02:36:32.057Z,956.84
2018-07-05T02:37:32.069Z,956.80
2018-07-05T02:38:32.015Z,956.78
2018-07-05T02:39:32.011Z,956.79
2018-07-05T02:40:32.004Z,956.79
2018-07-05T02:41:31.994Z,956.75
2018-07-05T02:42:31.991Z,956.78
2018-07-05T02:43:31.972Z,956.75
2018-07-05T02:44:31.958Z,956.71
2018-07-05T02:45:31.957Z,956.67
2018-07-05T02:46:31.935Z,956.64
2018-07-05T02:47:31.954Z,956.61
2018-07-05T02:48:31.923Z,956.58
2018-07-05T02:49:31.916Z,956.57
2018-07-05T02:50:31.887Z,956.55
2018-07-05T02:51:31.880Z,956.52
2018-07-05T02:52:31.874Z,956.53
2018-07-05T02:53:31.872Z,956.51
2018-07-05T02:54:31.852Z,956.55
2018-07-05T02:55:31.836Z,956.53
2018-07-05T02:56:31.828Z,956.53
2018-07-05T02:57:31.813Z,956.51
2018-07-05T02:58:31.820Z,956.54
2018-07-05T02:59:31.793Z,956.47
2018-07-05T03:00:31.782Z,956.50
2018-07-05T03:01:31.771Z,956.43
2018-07-05T03:02:31.791Z,956.45
2018-07-05T03:03:31.786Z,956.45
2018-07-05T03:04:31.763Z,956.48
2018-07-05T03:05:31.729Z,956.49
2018-07-05T03:06:31.719Z,956.45
2018-07-05T03:07:31.704Z,956.47
2018-07-05T03:08:31.716Z,956.46
2018-07-05T03:09:31.690Z,956.47
2018-07-05T03:10:31.701Z,956.47
2018-07-05T03:11:31.681Z,956.43
2018-07-05T03:12:31.653Z,956.45
2018-07-05T03:13:31.659Z,956.44
2018-07-05T03:14:31.632Z,956.46
2018-07-05T03:15:31.625Z,956.47
2018-07-05T03:16:31.619Z,956.42
2018-07-05T03:17:31.604Z,956.46
2018-07-05T03:18:31.603Z,956.47
2018-07-05T03:19:31.579Z,956.45
2018-07-05T03:20:31.610Z,956.48
2018-07-05T03:21:31.567Z,956.50
2018-07-05T03:22:31.570Z,956.47
2018-07-05T03:23:31.600Z,956.49
2018-07-05T03:24:31.549Z,956.49
2018-07-05T03:25:31.518Z,956.50
2018-07-05T03:26:31.513Z,956.52
2018-07-05T03:27:31.516Z,956.53
2018-07-05T03:28:31.481Z,956.50
2018-07-05T03:29:31.481Z,956.51
2018-07-05T03:30:31.464Z,956.51
2018-07-05T03:31:31.495Z,956.54
2018-07-05T03:32:31.449Z,956.56
2018-07-05T03:33:31.463Z,956.59
2018-07-05T03:34:31.434Z,956.58
2018-07-05T03:35:31.411Z,956.58
2018-07-05T03:36:31.419Z,956.58
2018-07-05T03:37:31.385Z,956.62
2018-07-05T03:38:31.385Z,956.66
2018-07-05T03:39:31.390Z,956.69
2018-07-05T03:40:31.360Z,956.71
2018-07-05T03:41:31.362Z,956.69
2018-07-05T03:42:31.334Z,956.74
2018-07-05T03:43:31.323Z,956.76
2018-07-05T03:44:31.357Z,956.78
2018-07-05T03:45:31.304Z,956.72
2018-07-05T03:46:31.290Z,956.71
2018-07-05T03:47:31.304Z,956.68
2018-07-05T03:48:31.267Z,956.69
2018-07-05T03:49:31.272Z,956.72
2018-07-05T03:50:31.250Z,956.68
2018-07-05T03:51:31.324Z,956.71
2018-07-05T03:52:31.223Z,956.67
2018-07-05T03:53:31.215Z,956.70
2018-07-05T03:54:31.230Z,956.74
2018-07-05T03:55:31.197Z,956.68
2018-07-05T03:56:31.191Z,956.76
2018-07-05T03:57:31.172Z,956.77
2018-07-05T03:58:31.162Z,956.76
2018-07-05T03:59:31.168Z,956.77
2018-07-05T04:00:31.151Z,956.73
2018-07-05T04:01:31.134Z,956.76
2018-07-05T04:02:31.141Z,956.72
2018-07-05T04:03:31.107Z,956.76
2018-07-05T04:04:31.149Z,956.70
2018-07-05T04:05:31.092Z,956.75
2018-07-05T04:06:31.089Z,956.64
2018-07-05T04:07:31.074Z,956.64
2018-07-05T04:08:31.058Z,956.64
2018-07-05T04:09:31.077Z,956.63
2018-07-05T04:10:31.052Z,956.56
2018-07-05T04:11:31.028Z,956.59
2018-07-05T04:12:31.096Z,956.59
2018-07-05T04:13:31.004Z,956.58
2018-07-05T04:14:30.992Z,956.56
2018-07-05T04:15:30.991Z,956.59
2018-07-05T04:16:30.971Z,956.55
2018-07-05T04:17:30.966Z,956.53
2018-07-05T04:18:30.945Z,956.54
2018-07-05T04:19:30.945Z,956.51
2018-07-05T04:20:30.941Z,956.54
2018-07-05T04:21:30.914Z,956.54
2018-07-05T04:22:30.903Z,956.57
2018-07-05T04:23:30.900Z,956.55
2018-07-05T04:24:30.883Z,956.55
2018-07-05T04:25:30.889Z,956.61
2018-07-05T04:26:30.864Z,956.59
2018-07-05T04:27:30.862Z,956.63
2018-07-05T04:28:30.841Z,956.67
2018-07-05T04:29:30.830Z,956.61
2018-07-05T04:30:30.852Z,956.60
2018-07-05T04:31:30.817Z,956.61
2018-07-05T04:32:30.795Z,956.63
2018-07-05T04:33:30.788Z,956.63
2018-07-05T04:34:30.795Z,956.62
2018-07-05T04:35:30.778Z,956.66
2018-07-05T04:36:30.760Z,956.69
2018-07-05T04:37:30.761Z,956.69
2018-07-05T04:38:30.729Z,956.73
2018-07-05T04:39:30.723Z,956.73
2018-07-05T04:40:30.744Z,956.75
2018-07-05T04:41:30.723Z,956.71
2018-07-05T04:42:30.709Z,956.72
2018-07-05T04:43:30.708Z,956.71
2018-07-05T04:44:30.667Z,956.74
2018-07-05T04:45:30.657Z,956.73
2018-07-05T04:46:30.659Z,956.68
2018-07-05T04:47:30.637Z,956.68
2018-07-05T04:48:30.630Z,956.69
2018-07-05T04:49:30.612Z,956.67
2018-07-05T04:50:30.612Z,956.67
2018-07-05T04:51:30.625Z,956.69
2018-07-05T04:52:30.584Z,956.67
2018-07-05T04:53:30.575Z,956.69
2018-07-05T04:54:30.565Z,956.65
2018-07-05T04:55:30.557Z,956.65
2018-07-05T04:56:30.550Z,956.64
2018-07-05T04:57:30.535Z,956.58
2018-07-05T04:58:30.544Z,956.61
2018-07-05T04:59:30.510Z,956.57
2018-07-05T05:00:30.517Z,956.58
2018-07-05T05:01:30.498Z,956.60
2018-07-05T05:02:30.532Z,956.60
2018-07-05T05:03:30.473Z,956.61
2018-07-05T05:04:30.462Z,956.67
2018-07-05T05:05:30.451Z,956.67
2018-07-05T05:06:30.473Z,956.69
2018-07-05T05:07:30.422Z,956.67
2018-07-05T05:08:30.415Z,956.70
2018-07-05T05:09:30.401Z,956.77
2018-07-05T05:10:30.400Z,956.75
2018-07-05T05:11:30.395Z,956.70
2018-07-05T05:12:30.366Z,956.71
2018-07-05T05:13:30.370Z,956.72
2018-07-05T05:14:30.352Z,956.74
2018-07-05T05:15:30.351Z,956.78
2018-07-05T05:16:30.350Z,956.78
2018-07-05T05:17:30.342Z,956.80
2018-07-05T05:18:30.309Z,956.78
2018-07-05T05:19:30.291Z,956.84
2018-07-05T05:20:30.313Z,956.85
2018-07-05T05:21:30.300Z,956.82
2018-07-05T05:22:30.259Z,956.80
2018-07-05T05:23:30.277Z,956.84
2018-07-05T05:24:30.240Z,956.81
2018-07-05T05:25:30.227Z,956.83
2018-07-05T05:26:30.235Z,956.89
2018-07-05T05:27:30.231Z,956.89
2018-07-05T05:28:30.210Z,956.90
2018-07-05T05:29:30.196Z,956.91
2018-07-05T05:30:30.179Z,956.93
2018-07-05T05:31:30.162Z,956.91
2018-07-05T05:32:30.166Z,956.91
2018-07-05T05:33:30.146Z,956.87
2018-07-05T05:34:30.156Z,956.86
2018-07-05T05:35:30.122Z,956.84
2018-07-05T05:36:30.118Z,956.89
2018-07-05T05:37:30.110Z,956.87
2018-07-05T05:38:30.089Z,956.85
2018-07-05T05:39:30.078Z,956.84
2018-07-05T05:40:30.070Z,956.83
2018-07-05T05:41:30.063Z,956.84
2018-07-05T05:42:30.130Z,956.93
2018-07-05T05:43:30.036Z,956.94
2018-07-05T05:44:30.031Z,956.96
2018-07-05T05:45:30.017Z,957.04
2018-07-05T05:46:30.007Z,956.97
2018-07-05T05:47:30.018Z,956.98
2018-07-05T05:48:29.981Z,957.01
2018-07-05T05:49:29.976Z,957.03
2018-07-05T05:50:29.968Z,957.02
2018-07-05T05:51:29.952Z,957.00
2018-07-05T05:52:29.950Z,957.03
2018-07-05T05:53:29.932Z,957.00
2018-07-05T05:54:29.925Z,957.01
2018-07-05T05:55:29.944Z,956.99
2018-07-05T05:56:29.905Z,956.95
2018-07-05T05:57:29.898Z,956.90
2018-07-05T05:58:29.875Z,956.93
2018-07-05T05:59:29.871Z,956.97
2018-07-05T06:00:29.855Z,956.94
2018-07-05T06:01:29.845Z,956.96
2018-07-05T06:02:29.838Z,956.96
2018-07-05T06:03:29.833Z,957.00
2018-07-05T06:04:29.813Z,956.98
2018-07-05T06:05:29.801Z,956.99
2018-07-05T06:06:29.793Z,957.00
2018-07-05T06:07:29.798Z,956.97
2018-07-05T06:08:29.791Z,956.96
2018-07-05T06:09:29.761Z,956.98
2018-07-05T06:10:29.747Z,956.96
2018-07-05T07:32:40.058Z,958.08
2018-07-05T07:33:40.201Z,958.07
2018-07-05T07:34:40.321Z,958.03
2018-07-05T07:35:39.973Z,958.04
2018-07-05T07:36:39.658Z,958.07
2018-07-05T07:37:39.955Z,958.01
2018-07-05T07:38:39.534Z,958.03
2018-07-05T07:39:40.000Z,958.03
2018-07-05T07:40:39.800Z,958.01
2018-07-05T07:41:39.478Z,957.98
2018-07-05T07:42:39.381Z,958.02
2018-07-05T07:43:39.466Z,958.01
2018-07-05T07:44:39.580Z,957.99
2018-07-05T07:45:39.446Z,958.01
2018-07-05T07:46:39.298Z,957.99
2018-07-05T07:47:39.158Z,957.99
2018-07-05T07:48:38.977Z,957.99
2018-07-05T07:49:40.142Z,957.99
2018-07-05T07:50:39.743Z,958.03
2018-07-05T07:51:38.960Z,958.02
2018-07-05T07:52:38.737Z,958.01
2018-07-05T07:53:38.343Z,958.02
2018-07-05T08:31:13.203Z,957.96
2018-07-05T08:32:12.983Z,957.95
2018-07-05T08:33:12.978Z,957.95
2018-07-05T08:34:13.448Z,957.95
2018-07-05T08:35:12.863Z,957.92
2018-07-05T08:36:13.219Z,957.94
2018-07-05T08:37:12.543Z,957.90
2018-07-05T08:38:13.282Z,957.94
2018-07-05T08:39:12.256Z,957.92
2018-07-05T08:40:12.601Z,957.90
2018-07-05T08:41:12.119Z,957.87
2018-07-05T08:42:12.341Z,957.89
2018-07-05T08:43:12.377Z,957.91
2018-07-05T08:44:11.739Z,957.90
2018-07-05T08:45:11.639Z,957.90
2018-07-05T08:46:11.635Z,957.90
2018-07-05T08:47:11.860Z,957.91
2018-07-05T08:48:11.503Z,957.92
2018-07-05T08:49:11.875Z,957.92
2018-07-05T08:50:10.904Z,957.87
2018-07-05T08:51:11.115Z,957.87
2018-07-05T08:52:10.960Z,957.83
2018-07-05T08:53:10.837Z,957.86
2018-07-05T08:54:10.421Z,957.88
2018-07-05T08:55:10.920Z,957.85
2018-07-05T08:56:10.496Z,957.83
2018-07-05T08:57:10.317Z,957.86
2018-07-05T08:58:10.226Z,957.82
2018-07-05T08:59:10.539Z,957.81
2018-07-05T09:00:10.017Z,957.80
2018-07-05T09:01:09.822Z,957.78
2018-07-05T09:02:09.825Z,957.81
2018-07-05T09:03:09.536Z,957.76
2018-07-05T09:04:09.462Z,957.77
2018-07-05T09:05:09.453Z,957.81
2018-07-05T09:06:09.042Z,957.76
2018-07-05T09:07:09.242Z,957.78
2018-07-05T09:08:08.806Z,957.72
2018-07-05T09:09:08.723Z,957.80
2018-07-05T09:10:08.541Z,957.79
2018-07-05T09:11:08.662Z,957.77
2018-07-05T09:12:08.919Z,957.78
2018-07-05T09:13:08.661Z,957.80
2018-07-05T09:14:08.263Z,957.80
2018-07-05T09:15:09.198Z,957.78
2018-07-05T09:16:07.920Z,957.79
2018-07-05T09:17:07.219Z,957.82
2018-07-05T09:18:08.145Z,957.82
2018-07-05T09:19:07.741Z,957.83
2018-07-05T09:20:07.595Z,957.83
2018-07-05T09:21:07.753Z,957.84
2018-07-05T09:22:07.681Z,957.85
2018-07-05T09:23:07.422Z,957.82
2018-07-05T09:24:07.198Z,957.84
2018-07-05T09:25:07.635Z,957.80
2018-07-05T09:26:07.195Z,957.76
2018-07-05T09:27:06.620Z,957.77
2018-07-05T09:28:07.204Z,957.75
2018-07-05T09:29:06.518Z,957.76
2018-07-05T09:30:06.379Z,957.74
2018-07-05T09:31:06.395Z,957.74
2018-07-05T09:32:06.623Z,957.75
2018-07-05T09:33:05.978Z,957.74
2018-07-05T09:34:07.541Z,957.71
2018-07-05T09:35:06.102Z,957.69
2018-07-05T09:36:05.653Z,957.71
2018-07-05T09:37:05.404Z,957.76
2018-07-05T09:38:05.841Z,957.71
2018-07-05T09:39:05.763Z,957.71
2018-07-05T09:40:05.481Z,957.70
2018-07-05T09:41:05.118Z,957.69
2018-07-05T09:42:04.821Z,957.71
2018-07-05T09:43:05.261Z,957.71
2018-07-05T09:44:28.695Z,957.69
2018-07-05T09:45:28.481Z,957.68
2018-07-05T09:46:28.536Z,957.73
2018-07-05T09:47:28.307Z,957.71
